sensor_id;sensor_type;location;lat;lon;timestamp;temperature;humidity
837;DHT22;400;53.550;9.932;2023-06-22T00:01:09;21.40;99.90
837;DHT22;400;53.550;9.932;2023-06-22T00:03:35;21.40;99.90
837;DHT22;400;53.550;9.932;2023-06-22T00:06:02;21.40;99.90
837;DHT22;400;53.550;9.932;2023-06-22T00:08:30;21.30;99.90
837;DHT22;400;53.550;9.932;2023-06-22T00:10:57;21.30;99.90
837;DHT22;400;53.550;9.932;2023-06-22T00:13:24;21.30;99.90
837;DHT22;400;53.550;9.932;2023-06-22T00:15:52;21.40;99.90
837;DHT22;400;53.550;9.932;2023-06-22T00:18:18;21.40;99.90
837;DHT22;400;53.550;9.932;2023-06-22T00:20:45;21.40;99.90
837;DHT22;400;53.550;9.932;2023-06-22T00:23:12;21.40;99.90
837;DHT22;400;53.550;9.932;2023-06-22T00:25:41;21.40;99.90
837;DHT22;400;53.550;9.932;2023-06-22T00:28:07;21.40;99.90
837;DHT22;400;53.550;9.932;2023-06-22T00:30:34;21.30;99.90
837;DHT22;400;53.550;9.932;2023-06-22T00:33:02;21.30;99.90
837;DHT22;400;53.550;9.932;2023-06-22T00:35:33;21.30;99.90
837;DHT22;400;53.550;9.932;2023-06-22T00:38:00;21.40;99.90
837;DHT22;400;53.550;9.932;2023-06-22T00:40:27;21.40;99.90
837;DHT22;400;53.550;9.932;2023-06-22T00:42:54;21.40;99.90
837;DHT22;400;53.550;9.932;2023-06-22T00:45:21;21.40;99.90
837;DHT22;400;53.550;9.932;2023-06-22T00:47:48;21.40;99.90
837;DHT22;400;53.550;9.932;2023-06-22T00:50:17;21.40;99.90
837;DHT22;400;53.550;9.932;2023-06-22T00:52:47;21.40;99.90
837;DHT22;400;53.550;9.932;2023-06-22T00:55:14;21.30;99.90
837;DHT22;400;53.550;9.932;2023-06-22T00:57:43;21.30;99.90
837;DHT22;400;53.550;9.932;2023-06-22T01:00:10;21.20;99.90
837;DHT22;400;53.550;9.932;2023-06-22T01:02:42;21.20;99.90
837;DHT22;400;53.550;9.932;2023-06-22T01:05:11;21.20;99.90
837;DHT22;400;53.550;9.932;2023-06-22T01:07:42;21.10;99.90
837;DHT22;400;53.550;9.932;2023-06-22T01:10:11;21.10;99.90
837;DHT22;400;53.550;9.932;2023-06-22T01:12:42;21.10;99.90
837;DHT22;400;53.550;9.932;2023-06-22T01:15:18;21.20;99.90
837;DHT22;400;53.550;9.932;2023-06-22T01:17:47;21.20;99.90
837;DHT22;400;53.550;9.932;2023-06-22T01:20:14;21.20;99.90
837;DHT22;400;53.550;9.932;2023-06-22T01:22:46;21.20;99.90
837;DHT22;400;53.550;9.932;2023-06-22T01:25:19;21.10;99.90
837;DHT22;400;53.550;9.932;2023-06-22T01:27:53;21.10;99.90
837;DHT22;400;53.550;9.932;2023-06-22T01:30:24;21.10;99.90
837;DHT22;400;53.550;9.932;2023-06-22T01:32:53;21.00;99.90
837;DHT22;400;53.550;9.932;2023-06-22T01:35:20;21.00;99.90
837;DHT22;400;53.550;9.932;2023-06-22T01:37:48;21.00;99.90
837;DHT22;400;53.550;9.932;2023-06-22T01:40:15;21.00;99.90
837;DHT22;400;53.550;9.932;2023-06-22T01:42:42;21.00;99.90
837;DHT22;400;53.550;9.932;2023-06-22T01:45:09;21.00;99.90
837;DHT22;400;53.550;9.932;2023-06-22T01:47:38;21.00;99.90
837;DHT22;400;53.550;9.932;2023-06-22T01:50:05;21.00;99.90
837;DHT22;400;53.550;9.932;2023-06-22T01:52:32;20.90;99.90
837;DHT22;400;53.550;9.932;2023-06-22T01:55:00;20.90;99.90
837;DHT22;400;53.550;9.932;2023-06-22T01:57:27;20.90;99.90
837;DHT22;400;53.550;9.932;2023-06-22T01:59:56;20.90;99.90
837;DHT22;400;53.550;9.932;2023-06-22T02:02:25;20.90;99.90
837;DHT22;400;53.550;9.932;2023-06-22T02:04:58;20.80;99.90
837;DHT22;400;53.550;9.932;2023-06-22T02:07:28;20.80;99.90
837;DHT22;400;53.550;9.932;2023-06-22T02:09:55;20.90;99.90
837;DHT22;400;53.550;9.932;2023-06-22T02:12:23;20.80;99.90
837;DHT22;400;53.550;9.932;2023-06-22T02:14:52;20.80;99.90
837;DHT22;400;53.550;9.932;2023-06-22T02:17:19;20.80;99.90
837;DHT22;400;53.550;9.932;2023-06-22T02:19:46;20.80;99.90
837;DHT22;400;53.550;9.932;2023-06-22T02:22:14;20.70;99.90
837;DHT22;400;53.550;9.932;2023-06-22T02:24:42;20.70;99.90
837;DHT22;400;53.550;9.932;2023-06-22T02:27:11;20.70;99.90
837;DHT22;400;53.550;9.932;2023-06-22T02:29:38;20.70;99.90
837;DHT22;400;53.550;9.932;2023-06-22T02:32:05;20.70;99.90
837;DHT22;400;53.550;9.932;2023-06-22T02:34:34;20.60;99.90
837;DHT22;400;53.550;9.932;2023-06-22T02:37:02;20.60;99.90
837;DHT22;400;53.550;9.932;2023-06-22T02:39:30;20.60;99.90
837;DHT22;400;53.550;9.932;2023-06-22T02:41:56;20.50;99.90
837;DHT22;400;53.550;9.932;2023-06-22T02:44:23;20.50;99.90
837;DHT22;400;53.550;9.932;2023-06-22T02:46:50;20.50;99.90
837;DHT22;400;53.550;9.932;2023-06-22T02:49:17;20.40;99.90
837;DHT22;400;53.550;9.932;2023-06-22T02:51:45;20.40;99.90
837;DHT22;400;53.550;9.932;2023-06-22T02:54:12;20.40;99.90
837;DHT22;400;53.550;9.932;2023-06-22T02:56:40;20.40;99.90
837;DHT22;400;53.550;9.932;2023-06-22T02:59:09;20.40;99.90
837;DHT22;400;53.550;9.932;2023-06-22T03:01:37;20.30;99.90
837;DHT22;400;53.550;9.932;2023-06-22T03:04:06;20.30;99.90
837;DHT22;400;53.550;9.932;2023-06-22T03:06:35;20.30;99.90
837;DHT22;400;53.550;9.932;2023-06-22T03:09:04;20.30;99.90
837;DHT22;400;53.550;9.932;2023-06-22T03:11:32;20.30;99.90
837;DHT22;400;53.550;9.932;2023-06-22T03:14:01;20.30;99.90
837;DHT22;400;53.550;9.932;2023-06-22T03:16:30;20.20;99.90
837;DHT22;400;53.550;9.932;2023-06-22T03:19:00;20.10;99.90
837;DHT22;400;53.550;9.932;2023-06-22T03:21:28;20.10;99.90
837;DHT22;400;53.550;9.932;2023-06-22T03:23:55;20.10;99.90
837;DHT22;400;53.550;9.932;2023-06-22T03:26:22;20.10;99.90
837;DHT22;400;53.550;9.932;2023-06-22T03:28:52;20.10;99.90
837;DHT22;400;53.550;9.932;2023-06-22T03:31:20;20.10;99.90
837;DHT22;400;53.550;9.932;2023-06-22T03:33:49;20.10;99.90
837;DHT22;400;53.550;9.932;2023-06-22T03:36:16;20.10;99.90
837;DHT22;400;53.550;9.932;2023-06-22T03:38:44;20.10;99.90
837;DHT22;400;53.550;9.932;2023-06-22T03:41:11;20.10;99.90
837;DHT22;400;53.550;9.932;2023-06-22T03:43:38;20.10;99.90
837;DHT22;400;53.550;9.932;2023-06-22T03:46:06;20.10;99.90
837;DHT22;400;53.550;9.932;2023-06-22T03:48:45;20.20;99.90
837;DHT22;400;53.550;9.932;2023-06-22T03:51:15;20.10;99.90
837;DHT22;400;53.550;9.932;2023-06-22T03:53:42;20.00;99.90
837;DHT22;400;53.550;9.932;2023-06-22T03:56:11;20.10;99.90
837;DHT22;400;53.550;9.932;2023-06-22T03:58:38;20.10;99.90
837;DHT22;400;53.550;9.932;2023-06-22T04:01:08;20.10;99.90
837;DHT22;400;53.550;9.932;2023-06-22T04:03:38;20.20;99.90
837;DHT22;400;53.550;9.932;2023-06-22T04:06:05;20.20;99.90
837;DHT22;400;53.550;9.932;2023-06-22T04:08:32;20.30;99.90
837;DHT22;400;53.550;9.932;2023-06-22T04:10:59;20.40;99.90
837;DHT22;400;53.550;9.932;2023-06-22T04:13:27;20.40;99.90
837;DHT22;400;53.550;9.932;2023-06-22T04:15:54;20.40;99.90
837;DHT22;400;53.550;9.932;2023-06-22T04:18:21;20.40;99.90
837;DHT22;400;53.550;9.932;2023-06-22T04:20:50;20.50;99.90
837;DHT22;400;53.550;9.932;2023-06-22T04:23:17;20.40;99.90
837;DHT22;400;53.550;9.932;2023-06-22T04:25:47;20.50;99.90
837;DHT22;400;53.550;9.932;2023-06-22T04:28:14;20.50;99.90
837;DHT22;400;53.550;9.932;2023-06-22T04:30:41;20.50;99.90
837;DHT22;400;53.550;9.932;2023-06-22T04:33:12;20.60;99.90
837;DHT22;400;53.550;9.932;2023-06-22T04:35:41;20.60;99.90
837;DHT22;400;53.550;9.932;2023-06-22T04:38:12;20.60;99.90
837;DHT22;400;53.550;9.932;2023-06-22T04:40:40;20.70;99.90
837;DHT22;400;53.550;9.932;2023-06-22T04:43:07;20.70;99.90
837;DHT22;400;53.550;9.932;2023-06-22T04:45:35;20.80;99.90
837;DHT22;400;53.550;9.932;2023-06-22T04:48:06;20.90;99.90
837;DHT22;400;53.550;9.932;2023-06-22T04:50:41;20.90;99.90
837;DHT22;400;53.550;9.932;2023-06-22T04:53:12;21.00;99.90
837;DHT22;400;53.550;9.932;2023-06-22T04:55:40;21.00;99.90
837;DHT22;400;53.550;9.932;2023-06-22T04:58:12;21.00;99.90
837;DHT22;400;53.550;9.932;2023-06-22T05:00:44;21.00;99.90
837;DHT22;400;53.550;9.932;2023-06-22T05:03:12;21.00;99.90
837;DHT22;400;53.550;9.932;2023-06-22T05:05:39;21.00;99.90
837;DHT22;400;53.550;9.932;2023-06-22T05:08:06;21.10;99.90
837;DHT22;400;53.550;9.932;2023-06-22T05:10:34;21.20;99.90
837;DHT22;400;53.550;9.932;2023-06-22T05:13:01;21.20;99.90
837;DHT22;400;53.550;9.932;2023-06-22T05:15:28;21.10;99.90
837;DHT22;400;53.550;9.932;2023-06-22T05:17:58;21.10;99.90
837;DHT22;400;53.550;9.932;2023-06-22T05:20:31;21.20;99.90
837;DHT22;400;53.550;9.932;2023-06-22T05:22:59;21.20;99.90
837;DHT22;400;53.550;9.932;2023-06-22T05:25:26;21.20;99.90
837;DHT22;400;53.550;9.932;2023-06-22T05:27:59;21.30;99.90
837;DHT22;400;53.550;9.932;2023-06-22T05:30:29;21.30;99.90
837;DHT22;400;53.550;9.932;2023-06-22T05:33:02;21.40;99.90
837;DHT22;400;53.550;9.932;2023-06-22T05:35:33;21.50;99.90
837;DHT22;400;53.550;9.932;2023-06-22T05:38:02;21.60;99.90
837;DHT22;400;53.550;9.932;2023-06-22T05:40:29;21.70;99.90
837;DHT22;400;53.550;9.932;2023-06-22T05:42:58;21.70;99.90
837;DHT22;400;53.550;9.932;2023-06-22T05:45:39;21.70;99.90
837;DHT22;400;53.550;9.932;2023-06-22T05:48:09;21.70;99.90
837;DHT22;400;53.550;9.932;2023-06-22T05:50:38;21.80;99.90
837;DHT22;400;53.550;9.932;2023-06-22T05:53:07;21.90;99.90
837;DHT22;400;53.550;9.932;2023-06-22T05:55:35;22.00;99.90
837;DHT22;400;53.550;9.932;2023-06-22T05:58:04;22.00;99.90
837;DHT22;400;53.550;9.932;2023-06-22T06:00:32;22.10;99.90
837;DHT22;400;53.550;9.932;2023-06-22T06:03:35;22.10;99.90
837;DHT22;400;53.550;9.932;2023-06-22T06:06:10;22.10;99.90
837;DHT22;400;53.550;9.932;2023-06-22T06:08:42;22.20;99.90
837;DHT22;400;53.550;9.932;2023-06-22T06:11:08;22.10;99.90
837;DHT22;400;53.550;9.932;2023-06-22T06:13:39;22.10;99.90
837;DHT22;400;53.550;9.932;2023-06-22T06:16:09;22.10;99.90
837;DHT22;400;53.550;9.932;2023-06-22T06:18:37;22.20;99.90
837;DHT22;400;53.550;9.932;2023-06-22T06:21:08;22.30;99.90
837;DHT22;400;53.550;9.932;2023-06-22T06:23:37;22.50;99.90
837;DHT22;400;53.550;9.932;2023-06-22T06:26:06;22.50;99.90
837;DHT22;400;53.550;9.932;2023-06-22T06:28:39;22.50;99.90
837;DHT22;400;53.550;9.932;2023-06-22T06:31:11;22.50;99.90
837;DHT22;400;53.550;9.932;2023-06-22T06:33:42;22.50;99.90
837;DHT22;400;53.550;9.932;2023-06-22T06:36:10;22.50;99.90
837;DHT22;400;53.550;9.932;2023-06-22T06:38:41;22.50;99.90
837;DHT22;400;53.550;9.932;2023-06-22T06:41:19;22.50;99.90
837;DHT22;400;53.550;9.932;2023-06-22T06:43:57;22.50;99.90
837;DHT22;400;53.550;9.932;2023-06-22T06:46:24;22.50;99.90
837;DHT22;400;53.550;9.932;2023-06-22T06:48:51;22.50;99.90
837;DHT22;400;53.550;9.932;2023-06-22T06:51:18;22.60;99.90
837;DHT22;400;53.550;9.932;2023-06-22T06:53:45;22.70;99.90
837;DHT22;400;53.550;9.932;2023-06-22T06:56:15;22.70;99.90
837;DHT22;400;53.550;9.932;2023-06-22T06:58:46;22.70;99.90
837;DHT22;400;53.550;9.932;2023-06-22T07:01:14;22.70;99.90
837;DHT22;400;53.550;9.932;2023-06-22T07:03:41;22.70;99.90
837;DHT22;400;53.550;9.932;2023-06-22T07:06:08;22.70;99.90
837;DHT22;400;53.550;9.932;2023-06-22T07:08:36;22.60;99.90
837;DHT22;400;53.550;9.932;2023-06-22T07:11:05;22.70;99.90
837;DHT22;400;53.550;9.932;2023-06-22T07:13:46;22.70;99.90
837;DHT22;400;53.550;9.932;2023-06-22T07:16:20;22.70;99.90
837;DHT22;400;53.550;9.932;2023-06-22T07:19:01;22.70;99.90
837;DHT22;400;53.550;9.932;2023-06-22T07:21:40;22.70;99.90
837;DHT22;400;53.550;9.932;2023-06-22T07:24:10;22.80;99.90
837;DHT22;400;53.550;9.932;2023-06-22T07:26:43;22.90;99.90
837;DHT22;400;53.550;9.932;2023-06-22T07:29:16;22.80;99.90
837;DHT22;400;53.550;9.932;2023-06-22T07:31:45;22.90;99.90
837;DHT22;400;53.550;9.932;2023-06-22T07:34:13;23.00;99.90
837;DHT22;400;53.550;9.932;2023-06-22T07:36:45;23.10;99.90
837;DHT22;400;53.550;9.932;2023-06-22T07:39:14;23.30;99.90
837;DHT22;400;53.550;9.932;2023-06-22T07:41:45;23.40;99.90
837;DHT22;400;53.550;9.932;2023-06-22T07:44:11;23.50;99.90
837;DHT22;400;53.550;9.932;2023-06-22T07:46:39;23.60;99.90
837;DHT22;400;53.550;9.932;2023-06-22T07:49:08;23.80;99.90
837;DHT22;400;53.550;9.932;2023-06-22T07:51:37;23.70;99.90
837;DHT22;400;53.550;9.932;2023-06-22T07:54:10;23.80;99.90
837;DHT22;400;53.550;9.932;2023-06-22T07:56:38;24.00;99.90
837;DHT22;400;53.550;9.932;2023-06-22T07:59:05;24.00;99.90
837;DHT22;400;53.550;9.932;2023-06-22T08:01:33;24.00;99.90
837;DHT22;400;53.550;9.932;2023-06-22T08:04:08;24.10;99.90
837;DHT22;400;53.550;9.932;2023-06-22T08:06:39;24.20;99.90
837;DHT22;400;53.550;9.932;2023-06-22T08:09:10;24.30;99.90
837;DHT22;400;53.550;9.932;2023-06-22T08:11:41;24.40;99.90
837;DHT22;400;53.550;9.932;2023-06-22T08:14:23;24.50;99.90
837;DHT22;400;53.550;9.932;2023-06-22T08:17:03;24.50;99.90
837;DHT22;400;53.550;9.932;2023-06-22T08:19:38;24.60;99.90
837;DHT22;400;53.550;9.932;2023-06-22T08:22:08;24.60;99.90
837;DHT22;400;53.550;9.932;2023-06-22T08:24:35;24.70;99.90
837;DHT22;400;53.550;9.932;2023-06-22T08:27:09;24.60;99.90
837;DHT22;400;53.550;9.932;2023-06-22T08:29:37;24.50;99.90
837;DHT22;400;53.550;9.932;2023-06-22T08:32:05;24.50;99.90
837;DHT22;400;53.550;9.932;2023-06-22T08:34:42;24.60;99.90
837;DHT22;400;53.550;9.932;2023-06-22T08:37:10;24.60;99.90
837;DHT22;400;53.550;9.932;2023-06-22T08:39:37;24.60;99.90
837;DHT22;400;53.550;9.932;2023-06-22T08:42:07;24.50;99.90
837;DHT22;400;53.550;9.932;2023-06-22T08:44:34;24.60;99.90
837;DHT22;400;53.550;9.932;2023-06-22T08:47:02;24.60;99.90
837;DHT22;400;53.550;9.932;2023-06-22T08:49:29;24.60;99.90
837;DHT22;400;53.550;9.932;2023-06-22T08:51:58;24.60;99.90
837;DHT22;400;53.550;9.932;2023-06-22T08:54:25;24.60;99.90
837;DHT22;400;53.550;9.932;2023-06-22T08:56:52;24.70;99.90
837;DHT22;400;53.550;9.932;2023-06-22T08:59:20;24.70;99.90
837;DHT22;400;53.550;9.932;2023-06-22T09:01:48;24.70;99.90
837;DHT22;400;53.550;9.932;2023-06-22T09:04:15;24.70;99.90
837;DHT22;400;53.550;9.932;2023-06-22T09:06:45;24.80;99.90
837;DHT22;400;53.550;9.932;2023-06-22T09:09:15;24.80;99.90
837;DHT22;400;53.550;9.932;2023-06-22T09:11:58;24.80;99.90
837;DHT22;400;53.550;9.932;2023-06-22T09:14:34;25.00;99.90
837;DHT22;400;53.550;9.932;2023-06-22T09:17:01;25.00;99.90
837;DHT22;400;53.550;9.932;2023-06-22T09:19:29;25.10;99.90
837;DHT22;400;53.550;9.932;2023-06-22T09:21:56;25.10;99.90
837;DHT22;400;53.550;9.932;2023-06-22T09:24:24;25.20;99.90
837;DHT22;400;53.550;9.932;2023-06-22T09:26:52;25.20;99.90
837;DHT22;400;53.550;9.932;2023-06-22T09:29:33;25.30;99.90
837;DHT22;400;53.550;9.932;2023-06-22T09:32:00;25.30;99.90
837;DHT22;400;53.550;9.932;2023-06-22T09:34:29;25.30;99.90
837;DHT22;400;53.550;9.932;2023-06-22T09:36:57;25.40;99.90
837;DHT22;400;53.550;9.932;2023-06-22T09:39:29;25.40;99.90
837;DHT22;400;53.550;9.932;2023-06-22T09:41:58;25.40;99.90
837;DHT22;400;53.550;9.932;2023-06-22T09:44:29;25.50;99.90
837;DHT22;400;53.550;9.932;2023-06-22T09:46:59;25.50;99.90
837;DHT22;400;53.550;9.932;2023-06-22T09:49:35;25.60;99.90
837;DHT22;400;53.550;9.932;2023-06-22T09:52:03;25.60;99.90
837;DHT22;400;53.550;9.932;2023-06-22T09:54:32;25.60;99.90
837;DHT22;400;53.550;9.932;2023-06-22T09:57:05;25.60;99.90
837;DHT22;400;53.550;9.932;2023-06-22T09:59:32;25.70;99.90
837;DHT22;400;53.550;9.932;2023-06-22T10:01:59;25.80;99.90
837;DHT22;400;53.550;9.932;2023-06-22T10:04:36;25.80;99.90
837;DHT22;400;53.550;9.932;2023-06-22T10:07:05;25.80;99.90
837;DHT22;400;53.550;9.932;2023-06-22T10:09:34;25.80;99.90
837;DHT22;400;53.550;9.932;2023-06-22T10:12:02;25.80;99.90
837;DHT22;400;53.550;9.932;2023-06-22T10:14:31;25.90;99.90
837;DHT22;400;53.550;9.932;2023-06-22T10:16:58;25.90;99.90
837;DHT22;400;53.550;9.932;2023-06-22T10:19:25;25.90;99.90
837;DHT22;400;53.550;9.932;2023-06-22T10:22:07;26.00;99.90
837;DHT22;400;53.550;9.932;2023-06-22T10:24:41;26.10;99.90
837;DHT22;400;53.550;9.932;2023-06-22T10:27:22;26.10;99.70
837;DHT22;400;53.550;9.932;2023-06-22T10:29:50;26.20;99.60
837;DHT22;400;53.550;9.932;2023-06-22T10:32:17;26.20;99.50
837;DHT22;400;53.550;9.932;2023-06-22T10:34:53;26.20;99.50
837;DHT22;400;53.550;9.932;2023-06-22T10:37:23;26.30;99.50
837;DHT22;400;53.550;9.932;2023-06-22T10:39:57;26.40;99.50
837;DHT22;400;53.550;9.932;2023-06-22T10:42:27;26.40;99.50
837;DHT22;400;53.550;9.932;2023-06-22T10:44:54;26.50;99.50
837;DHT22;400;53.550;9.932;2023-06-22T10:47:25;26.50;99.30
837;DHT22;400;53.550;9.932;2023-06-22T10:49:59;26.50;99.20
837;DHT22;400;53.550;9.932;2023-06-22T10:52:27;26.60;99.30
837;DHT22;400;53.550;9.932;2023-06-22T10:54:57;26.60;99.30
837;DHT22;400;53.550;9.932;2023-06-22T11:00:28;26.80;99.40
837;DHT22;400;53.550;9.932;2023-06-22T11:02:57;26.90;99.30
837;DHT22;400;53.550;9.932;2023-06-22T11:05:24;26.90;99.00
837;DHT22;400;53.550;9.932;2023-06-22T11:07:51;26.90;99.20
837;DHT22;400;53.550;9.932;2023-06-22T11:10:47;27.00;99.00
837;DHT22;400;53.550;9.932;2023-06-22T11:13:14;27.10;99.00
837;DHT22;400;53.550;9.932;2023-06-22T11:15:44;27.20;99.00
837;DHT22;400;53.550;9.932;2023-06-22T11:18:12;27.20;99.00
837;DHT22;400;53.550;9.932;2023-06-22T11:20:39;27.40;98.90
837;DHT22;400;53.550;9.932;2023-06-22T11:23:06;27.40;98.50
837;DHT22;400;53.550;9.932;2023-06-22T11:25:35;27.50;98.50
837;DHT22;400;53.550;9.932;2023-06-22T11:28:10;27.50;98.00
837;DHT22;400;53.550;9.932;2023-06-22T11:30:39;27.50;98.00
837;DHT22;400;53.550;9.932;2023-06-22T11:33:07;27.60;98.10
837;DHT22;400;53.550;9.932;2023-06-22T11:35:35;27.70;98.30
837;DHT22;400;53.550;9.932;2023-06-22T11:38:05;27.70;98.10
837;DHT22;400;53.550;9.932;2023-06-22T11:40:35;27.80;98.10
837;DHT22;400;53.550;9.932;2023-06-22T11:43:02;28.00;97.80
837;DHT22;400;53.550;9.932;2023-06-22T11:45:45;28.10;97.40
837;DHT22;400;53.550;9.932;2023-06-22T11:48:13;28.20;97.40
837;DHT22;400;53.550;9.932;2023-06-22T11:50:40;28.30;97.00
837;DHT22;400;53.550;9.932;2023-06-22T11:53:07;28.20;97.00
837;DHT22;400;53.550;9.932;2023-06-22T11:55:46;28.20;97.20
837;DHT22;400;53.550;9.932;2023-06-22T11:58:13;28.00;97.30
837;DHT22;400;53.550;9.932;2023-06-22T12:00:51;27.70;97.60
837;DHT22;400;53.550;9.932;2023-06-22T12:03:27;27.80;97.80
837;DHT22;400;53.550;9.932;2023-06-22T12:05:56;27.90;97.50
837;DHT22;400;53.550;9.932;2023-06-22T12:08:25;27.90;97.30
837;DHT22;400;53.550;9.932;2023-06-22T12:11:00;28.10;97.30
837;DHT22;400;53.550;9.932;2023-06-22T12:16:14;28.10;97.30
837;DHT22;400;53.550;9.932;2023-06-22T12:18:43;28.10;97.50
837;DHT22;400;53.550;9.932;2023-06-22T12:21:17;28.20;97.40
837;DHT22;400;53.550;9.932;2023-06-22T12:23:50;28.00;97.40
837;DHT22;400;53.550;9.932;2023-06-22T12:26:20;28.00;97.50
837;DHT22;400;53.550;9.932;2023-06-22T12:28:48;28.10;97.50
837;DHT22;400;53.550;9.932;2023-06-22T12:31:19;28.10;97.40
837;DHT22;400;53.550;9.932;2023-06-22T12:33:50;28.20;97.40
837;DHT22;400;53.550;9.932;2023-06-22T12:36:18;28.30;97.20
837;DHT22;400;53.550;9.932;2023-06-22T12:38:47;28.30;97.10
837;DHT22;400;53.550;9.932;2023-06-22T12:41:14;28.30;96.90
837;DHT22;400;53.550;9.932;2023-06-22T12:43:44;28.40;96.90
837;DHT22;400;53.550;9.932;2023-06-22T12:46:25;28.50;96.70
837;DHT22;400;53.550;9.932;2023-06-22T12:48:59;28.70;96.40
837;DHT22;400;53.550;9.932;2023-06-22T12:51:39;28.70;96.40
837;DHT22;400;53.550;9.932;2023-06-22T12:54:13;28.80;96.40
837;DHT22;400;53.550;9.932;2023-06-22T12:56:42;28.90;96.30
837;DHT22;400;53.550;9.932;2023-06-22T12:59:36;28.90;96.10
837;DHT22;400;53.550;9.932;2023-06-22T13:02:06;29.10;96.20
837;DHT22;400;53.550;9.932;2023-06-22T13:04:35;29.10;96.30
837;DHT22;400;53.550;9.932;2023-06-22T13:07:03;29.20;96.00
837;DHT22;400;53.550;9.932;2023-06-22T13:09:33;29.30;95.90
837;DHT22;400;53.550;9.932;2023-06-22T13:12:05;29.30;95.80
837;DHT22;400;53.550;9.932;2023-06-22T13:14:36;29.30;95.60
837;DHT22;400;53.550;9.932;2023-06-22T13:17:05;29.10;95.70
837;DHT22;400;53.550;9.932;2023-06-22T13:19:34;29.00;96.00
837;DHT22;400;53.550;9.932;2023-06-22T13:22:01;28.80;96.00
837;DHT22;400;53.550;9.932;2023-06-22T13:24:30;28.70;96.70
837;DHT22;400;53.550;9.932;2023-06-22T13:27:05;28.70;96.50
837;DHT22;400;53.550;9.932;2023-06-22T13:29:46;28.60;96.30
837;DHT22;400;53.550;9.932;2023-06-22T13:32:19;28.50;96.50
837;DHT22;400;53.550;9.932;2023-06-22T13:34:49;28.50;96.60
837;DHT22;400;53.550;9.932;2023-06-22T13:37:18;28.30;96.60
837;DHT22;400;53.550;9.932;2023-06-22T13:39:58;28.30;96.70
837;DHT22;400;53.550;9.932;2023-06-22T13:42:40;28.30;96.70
837;DHT22;400;53.550;9.932;2023-06-22T13:45:08;28.50;96.60
837;DHT22;400;53.550;9.932;2023-06-22T13:47:46;28.50;96.60
837;DHT22;400;53.550;9.932;2023-06-22T13:50:17;28.60;96.60
837;DHT22;400;53.550;9.932;2023-06-22T13:52:54;28.60;96.30
837;DHT22;400;53.550;9.932;2023-06-22T13:55:26;28.70;96.20
837;DHT22;400;53.550;9.932;2023-06-22T13:57:56;28.80;96.30
837;DHT22;400;53.550;9.932;2023-06-22T14:00:25;28.80;96.00
837;DHT22;400;53.550;9.932;2023-06-22T14:02:53;29.00;96.00
837;DHT22;400;53.550;9.932;2023-06-22T14:05:22;29.20;95.70
837;DHT22;400;53.550;9.932;2023-06-22T14:07:52;29.00;95.70
837;DHT22;400;53.550;9.932;2023-06-22T14:10:22;29.10;95.90
837;DHT22;400;53.550;9.932;2023-06-22T14:12:52;29.10;95.80
837;DHT22;400;53.550;9.932;2023-06-22T14:15:20;29.10;95.80
837;DHT22;400;53.550;9.932;2023-06-22T14:17:47;29.10;95.80
837;DHT22;400;53.550;9.932;2023-06-22T14:20:15;29.10;95.80
837;DHT22;400;53.550;9.932;2023-06-22T14:22:46;28.90;95.90
837;DHT22;400;53.550;9.932;2023-06-22T14:25:13;28.90;96.00
837;DHT22;400;53.550;9.932;2023-06-22T14:27:40;28.80;96.10
837;DHT22;400;53.550;9.932;2023-06-22T14:30:16;28.50;96.30
837;DHT22;400;53.550;9.932;2023-06-22T14:32:44;28.40;96.80
837;DHT22;400;53.550;9.932;2023-06-22T14:35:11;28.40;97.20
837;DHT22;400;53.550;9.932;2023-06-22T14:37:38;28.30;96.80
837;DHT22;400;53.550;9.932;2023-06-22T14:40:16;28.20;96.80
837;DHT22;400;53.550;9.932;2023-06-22T14:42:43;28.00;97.20
837;DHT22;400;53.550;9.932;2023-06-22T14:45:12;28.00;97.10
837;DHT22;400;53.550;9.932;2023-06-22T14:47:39;28.00;97.20
837;DHT22;400;53.550;9.932;2023-06-22T14:50:06;28.10;97.20
837;DHT22;400;53.550;9.932;2023-06-22T14:52:35;28.10;97.30
837;DHT22;400;53.550;9.932;2023-06-22T14:55:04;28.10;97.40
837;DHT22;400;53.550;9.932;2023-06-22T14:57:32;28.10;97.50
837;DHT22;400;53.550;9.932;2023-06-22T15:00:00;28.00;97.40
837;DHT22;400;53.550;9.932;2023-06-22T15:02:28;28.00;97.60
837;DHT22;400;53.550;9.932;2023-06-22T15:04:56;28.00;97.70
837;DHT22;400;53.550;9.932;2023-06-22T15:07:24;28.00;97.60
837;DHT22;400;53.550;9.932;2023-06-22T15:09:55;28.00;97.50
837;DHT22;400;53.550;9.932;2023-06-22T15:12:22;27.90;97.60
837;DHT22;400;53.550;9.932;2023-06-22T15:15:05;28.00;97.60
837;DHT22;400;53.550;9.932;2023-06-22T15:17:45;27.80;97.50
837;DHT22;400;53.550;9.932;2023-06-22T15:20:17;27.70;97.50
837;DHT22;400;53.550;9.932;2023-06-22T15:22:48;27.60;97.80
837;DHT22;400;53.550;9.932;2023-06-22T15:25:31;27.60;98.00
837;DHT22;400;53.550;9.932;2023-06-22T15:28:27;27.40;98.10
837;DHT22;400;53.550;9.932;2023-06-22T15:30:57;27.30;98.40
837;DHT22;400;53.550;9.932;2023-06-22T15:33:27;27.20;98.60
837;DHT22;400;53.550;9.932;2023-06-22T15:35:56;27.20;98.80
837;DHT22;400;53.550;9.932;2023-06-22T15:38:31;27.10;98.90
837;DHT22;400;53.550;9.932;2023-06-22T15:41:01;27.00;99.00
837;DHT22;400;53.550;9.932;2023-06-22T15:43:32;26.90;99.10
837;DHT22;400;53.550;9.932;2023-06-22T15:46:05;26.90;99.30
837;DHT22;400;53.550;9.932;2023-06-22T15:48:46;26.90;99.40
837;DHT22;400;53.550;9.932;2023-06-22T15:51:14;26.90;99.50
837;DHT22;400;53.550;9.932;2023-06-22T15:53:47;26.90;99.40
837;DHT22;400;53.550;9.932;2023-06-22T15:56:20;26.90;99.40
837;DHT22;400;53.550;9.932;2023-06-22T15:58:51;26.90;99.60
837;DHT22;400;53.550;9.932;2023-06-22T16:01:19;26.90;99.60
837;DHT22;400;53.550;9.932;2023-06-22T16:03:49;26.80;99.70
837;DHT22;400;53.550;9.932;2023-06-22T16:06:17;26.70;99.80
837;DHT22;400;53.550;9.932;2023-06-22T16:08:45;26.70;99.90
837;DHT22;400;53.550;9.932;2023-06-22T16:11:12;26.70;99.90
837;DHT22;400;53.550;9.932;2023-06-22T16:13:40;26.60;99.90
837;DHT22;400;53.550;9.932;2023-06-22T16:16:07;26.60;99.90
837;DHT22;400;53.550;9.932;2023-06-22T16:18:36;26.60;99.90
837;DHT22;400;53.550;9.932;2023-06-22T16:21:04;26.50;99.90
837;DHT22;400;53.550;9.932;2023-06-22T16:23:32;26.60;99.90
837;DHT22;400;53.550;9.932;2023-06-22T16:25:59;26.60;99.90
837;DHT22;400;53.550;9.932;2023-06-22T16:28:26;26.60;99.90
837;DHT22;400;53.550;9.932;2023-06-22T16:30:53;26.50;99.90
837;DHT22;400;53.550;9.932;2023-06-22T16:33:21;26.50;99.90
837;DHT22;400;53.550;9.932;2023-06-22T16:35:51;26.40;99.90
837;DHT22;400;53.550;9.932;2023-06-22T16:38:19;26.40;99.90
837;DHT22;400;53.550;9.932;2023-06-22T16:40:48;26.40;99.90
837;DHT22;400;53.550;9.932;2023-06-22T16:43:16;26.40;99.90
837;DHT22;400;53.550;9.932;2023-06-22T16:45:46;26.50;99.90
837;DHT22;400;53.550;9.932;2023-06-22T16:48:15;26.40;99.90
837;DHT22;400;53.550;9.932;2023-06-22T16:50:42;26.40;99.90
837;DHT22;400;53.550;9.932;2023-06-22T16:53:19;26.40;99.90
837;DHT22;400;53.550;9.932;2023-06-22T16:55:48;26.40;99.80
837;DHT22;400;53.550;9.932;2023-06-22T16:58:17;26.20;99.70